createdAt,value
2023-05-20T00:02:18.690Z,67.60
2023-05-20T00:06:24.254Z,67.30
2023-05-20T00:10:29.744Z,67.10
2023-05-20T00:14:35.220Z,66.80
2023-05-20T00:18:40.787Z,66.60
2023-05-20T00:22:46.264Z,66.40
2023-05-20T00:26:52.093Z,66.10
2023-05-20T00:30:57.585Z,65.90
2023-05-20T00:35:03.961Z,65.70
2023-05-20T00:39:09.567Z,65.40
2023-05-20T00:43:15.061Z,65.40
2023-05-20T00:47:25.156Z,65.30
2023-05-20T00:51:31.143Z,65.40
2023-05-20T00:55:36.727Z,65.60
2023-05-20T00:59:44.666Z,65.90
2023-05-20T01:03:51.698Z,66.30
2023-05-20T01:07:57.548Z,66.90
2023-05-20T01:12:22.400Z,67.20
2023-05-20T01:16:29.634Z,67.90
2023-05-20T01:20:35.972Z,67.80
2023-05-20T01:24:53.527Z,67.80
2023-05-20T01:29:04.322Z,69.50
2023-05-20T01:33:12.609Z,68.40
2023-05-20T01:37:19.963Z,69.20
2023-05-20T01:41:27.034Z,69.50
2023-05-20T01:45:33.365Z,69.50
2023-05-20T01:49:39.048Z,69.60
2023-05-20T01:53:44.612Z,69.70
2023-05-20T01:57:50.097Z,69.90
2023-05-20T02:01:55.645Z,69.90
2023-05-20T02:06:01.248Z,70.00
2023-05-20T02:10:07.611Z,70.00
2023-05-20T02:14:13.111Z,70.30
2023-05-20T02:18:18.833Z,70.50
2023-05-20T02:22:24.406Z,70.40
2023-05-20T02:26:30.037Z,70.40
2023-05-20T02:30:35.824Z,70.60
2023-05-20T02:34:41.333Z,71.00
2023-05-20T02:38:46.844Z,71.20
2023-05-20T02:42:52.376Z,71.20
2023-05-20T02:46:57.882Z,71.50
2023-05-20T02:51:03.480Z,71.60
2023-05-20T02:55:09.838Z,71.90
2023-05-20T02:59:15.540Z,72.00
2023-05-20T03:03:21.740Z,72.80
2023-05-20T03:07:27.297Z,72.20
2023-05-20T03:11:32.863Z,72.30
2023-05-20T03:15:42.566Z,72.30
2023-05-20T03:19:48.224Z,73.20
2023-05-20T03:23:53.694Z,73.80
2023-05-20T03:27:59.850Z,73.40
2023-05-20T03:32:08.041Z,73.30
2023-05-20T03:36:14.951Z,73.70
2023-05-20T03:40:21.350Z,73.90
2023-05-20T03:44:26.900Z,74.20
2023-05-20T03:48:32.423Z,74.20
2023-05-20T03:52:38.411Z,74.70
2023-05-20T03:56:44.154Z,74.80
2023-05-20T04:00:49.776Z,75.00
2023-05-20T04:04:57.808Z,75.10
2023-05-20T04:09:03.932Z,74.80
2023-05-20T04:13:11.407Z,75.40
2023-05-20T04:17:17.032Z,75.30
2023-05-20T04:21:22.533Z,75.30
2023-05-20T04:25:28.075Z,75.30
2023-05-20T04:29:34.387Z,75.70
2023-05-20T04:33:40.284Z,75.70
2023-05-20T04:37:48.089Z,75.80
2023-05-20T04:41:55.114Z,76.40
2023-05-20T04:46:01.493Z,76.30
2023-05-20T04:50:10.837Z,76.20
2023-05-20T04:54:18.237Z,76.50
2023-05-20T04:58:25.105Z,76.10
2023-05-20T05:02:30.817Z,76.90
2023-05-20T05:06:36.533Z,76.20
2023-05-20T05:10:42.232Z,76.40
2023-05-20T05:14:47.720Z,76.40
2023-05-20T05:18:53.252Z,76.60
2023-05-20T05:22:59.243Z,76.60
2023-05-20T05:27:05.039Z,76.40
2023-05-20T05:31:10.617Z,76.40
2023-05-20T05:35:16.082Z,76.00
2023-05-20T05:39:21.778Z,75.90
2023-05-20T05:43:27.331Z,75.80
2023-05-20T05:47:33.014Z,75.50
2023-05-20T05:51:39.185Z,75.20
2023-05-20T05:55:47.406Z,75.10
2023-05-20T05:59:52.875Z,74.70
2023-05-20T06:03:58.477Z,74.50
2023-05-20T06:08:04.285Z,74.50
2023-05-20T06:12:10.895Z,74.50
2023-05-20T06:16:17.454Z,74.10
2023-05-20T06:20:22.976Z,73.80
2023-05-20T06:24:28.490Z,73.30
2023-05-20T06:28:34.203Z,72.80
2023-05-20T06:32:39.727Z,72.30
2023-05-20T06:36:45.320Z,72.00
2023-05-20T06:40:51.079Z,71.90
2023-05-20T06:44:56.655Z,71.10
2023-05-20T06:49:02.169Z,70.40
2023-05-20T06:53:07.781Z,69.60
2023-05-20T06:57:13.278Z,69.40
2023-05-20T07:01:19.033Z,68.80
2023-05-20T07:05:24.644Z,68.40
2023-05-20T07:09:30.103Z,67.00
2023-05-20T07:13:35.739Z,66.00
2023-05-20T07:17:41.291Z,63.70
2023-05-20T07:21:46.803Z,63.00
2023-05-20T07:25:54.020Z,62.70
2023-05-20T07:29:59.621Z,61.90
2023-05-20T07:34:05.254Z,62.10
2023-05-20T07:38:12.725Z,60.90
2023-05-20T07:42:18.236Z,60.60
2023-05-20T07:46:23.825Z,60.40
2023-05-20T07:50:29.324Z,61.00
2023-05-20T07:54:35.602Z,61.70
2023-05-20T07:58:44.068Z,59.90
2023-05-20T08:02:49.859Z,58.60
2023-05-20T08:06:55.844Z,59.60
2023-05-20T08:11:01.718Z,60.40
2023-05-20T08:15:08.203Z,59.80
2023-05-20T08:19:13.804Z,55.10
2023-05-20T08:23:19.371Z,58.20
2023-05-20T08:27:25.101Z,58.20
2023-05-20T08:31:30.671Z,59.40
2023-05-20T08:35:39.462Z,59.30
2023-05-20T08:39:46.636Z,58.60
2023-05-20T08:43:54.039Z,58.00
2023-05-20T08:48:01.265Z,58.00
2023-05-20T08:52:10.608Z,57.50
2023-05-20T08:56:17.976Z,56.80
2023-05-20T09:00:28.817Z,57.80
2023-05-20T09:04:34.673Z,58.30
2023-05-20T09:08:40.229Z,58.30
2023-05-20T09:12:45.741Z,58.10
2023-05-20T09:16:51.983Z,57.00
2023-05-20T09:20:57.929Z,57.40
2023-05-20T09:25:03.733Z,57.30
2023-05-20T09:29:09.662Z,57.40
2023-05-20T09:33:15.452Z,57.00
2023-05-20T09:37:22.694Z,57.60
2023-05-20T09:41:39.679Z,57.70
2023-05-20T09:45:46.009Z,56.20
2023-05-20T09:49:53.756Z,56.70
2023-05-20T09:53:59.413Z,56.30
2023-05-20T09:58:04.952Z,56.50
2023-05-20T10:02:10.788Z,56.50
2023-05-20T10:06:32.567Z,57.20
2023-05-20T10:11:02.393Z,55.50
2023-05-20T10:15:23.307Z,55.80
2023-05-20T10:19:32.892Z,56.80
2023-05-20T10:23:38.482Z,56.90
2023-05-20T10:27:48.193Z,57.50
2023-05-20T10:31:54.353Z,57.20
2023-05-20T10:36:01.127Z,57.30
2023-05-20T10:40:15.655Z,57.40
2023-05-20T10:44:21.474Z,58.30
2023-05-20T10:48:30.334Z,58.40
2023-05-20T10:52:39.070Z,59.00
2023-05-20T10:56:55.488Z,59.10
2023-05-20T11:01:03.427Z,59.30
2023-05-20T11:05:12.807Z,59.60
2023-05-20T11:09:18.288Z,59.90
2023-05-20T11:13:23.977Z,59.80
2023-05-20T11:17:29.634Z,60.30
2023-05-20T11:21:35.371Z,60.50
2023-05-20T11:25:41.152Z,60.10
2023-05-20T11:29:50.970Z,60.10
2023-05-20T11:33:56.590Z,58.80
2023-05-20T11:38:09.090Z,58.50
2023-05-20T11:42:16.624Z,58.50
2023-05-20T11:46:22.211Z,59.10
2023-05-20T11:50:27.915Z,59.30
2023-05-20T11:54:36.354Z,58.70
2023-05-20T11:58:44.231Z,58.70
2023-05-20T12:02:49.922Z,58.70
2023-05-20T12:06:56.009Z,59.00
2023-05-20T12:11:01.883Z,59.50
2023-05-20T12:15:08.346Z,59.70
2023-05-20T12:19:13.870Z,60.20
2023-05-20T12:23:19.379Z,60.00
2023-05-20T12:27:24.857Z,60.50
2023-05-20T12:31:32.991Z,61.00
2023-05-20T12:35:42.455Z,61.10
2023-05-20T12:39:47.968Z,60.90
2023-05-20T12:43:54.289Z,60.70
2023-05-20T12:48:00.389Z,61.00
2023-05-20T12:52:11.904Z,60.70
2023-05-20T12:56:26.844Z,61.00
2023-05-20T13:00:32.326Z,60.80
2023-05-20T13:04:37.892Z,60.80
2023-05-20T13:08:43.391Z,60.60
2023-05-20T13:12:48.932Z,60.40
2023-05-20T13:16:55.480Z,60.60
2023-05-20T13:21:01.155Z,60.00
2023-05-20T13:25:07.324Z,59.90
2023-05-20T13:29:13.701Z,59.60
2023-05-20T13:33:19.490Z,60.00
2023-05-20T13:37:25.111Z,59.40
2023-05-20T13:41:30.796Z,59.10
2023-05-20T13:45:36.469Z,59.20
2023-05-20T13:49:41.949Z,59.30
2023-05-20T13:53:47.443Z,59.80
2023-05-20T13:57:54.272Z,59.80
2023-05-20T14:01:59.896Z,59.60
2023-05-20T14:06:06.281Z,58.50
2023-05-20T14:10:11.764Z,57.90
2023-05-20T14:14:17.267Z,58.10
2023-05-20T14:18:22.921Z,58.10
2023-05-20T14:22:28.406Z,58.10
2023-05-20T14:26:34.520Z,58.30
2023-05-20T14:30:40.140Z,58.60
2023-05-20T14:34:45.624Z,58.30
2023-05-20T14:38:51.112Z,58.50
2023-05-20T14:42:56.627Z,58.90
2023-05-20T14:47:02.760Z,58.50
2023-05-20T14:51:08.376Z,58.30
2023-05-20T14:55:13.863Z,58.40
2023-05-20T14:59:19.603Z,58.30
2023-05-20T15:03:25.279Z,58.00
2023-05-20T15:07:32.039Z,58.00
2023-05-20T15:11:37.580Z,57.90
2023-05-20T15:15:43.083Z,58.00
2023-05-20T15:19:49.007Z,57.90
2023-05-20T15:23:54.610Z,57.10
2023-05-20T15:28:00.157Z,57.20
2023-05-20T15:32:06.313Z,56.90
2023-05-20T15:36:11.869Z,56.70
2023-05-20T15:40:17.574Z,56.50
2023-05-20T15:44:23.097Z,56.80
2023-05-20T15:48:28.607Z,56.60
2023-05-20T15:52:34.184Z,56.60
2023-05-20T15:56:39.709Z,56.50
2023-05-20T16:00:45.361Z,56.60
2023-05-20T16:04:50.879Z,56.50
2023-05-20T16:08:56.691Z,56.40
2023-05-20T16:13:02.309Z,56.20
2023-05-20T16:17:07.933Z,56.00
2023-05-20T16:21:13.428Z,55.20
2023-05-20T16:25:18.952Z,54.30
2023-05-20T16:29:24.490Z,52.90
2023-05-20T16:33:30.252Z,52.90
2023-05-20T16:37:35.785Z,52.40
2023-05-20T16:41:42.603Z,51.90
2023-05-20T16:45:48.137Z,51.60
2023-05-20T16:49:53.648Z,51.30
2023-05-20T16:53:59.155Z,51.70
2023-05-20T16:58:04.651Z,51.30
2023-05-20T17:02:10.125Z,51.00
2023-05-20T17:06:15.610Z,50.60
2023-05-20T17:10:21.350Z,50.70
2023-05-20T17:14:27.003Z,51.10
2023-05-20T17:18:32.498Z,51.10
2023-05-20T17:22:38.118Z,51.10
2023-05-20T17:26:43.591Z,51.50
2023-05-20T17:30:49.110Z,52.20
2023-05-20T17:34:54.590Z,52.60
2023-05-20T17:39:00.155Z,52.30
2023-05-20T17:43:05.750Z,52.70
2023-05-20T17:47:11.281Z,52.70
2023-05-20T17:51:17.041Z,53.10
2023-05-20T17:55:25.994Z,53.00
2023-05-20T17:59:33.830Z,53.00
2023-05-20T18:03:39.991Z,53.80
2023-05-20T18:07:45.962Z,54.20
2023-05-20T18:11:51.609Z,54.30
2023-05-20T18:15:57.231Z,54.30
2023-05-20T18:20:03.986Z,54.60
2023-05-20T18:24:09.559Z,54.90
2023-05-20T18:28:15.182Z,55.10
2023-05-20T18:32:22.314Z,55.40
2023-05-20T18:36:29.611Z,56.10
2023-05-20T18:40:35.504Z,56.60
2023-05-20T18:44:41.317Z,57.20
2023-05-20T18:48:46.802Z,57.70
2023-05-20T18:52:52.689Z,58.30
2023-05-20T18:56:58.308Z,58.60
2023-05-20T19:01:04.038Z,59.00
2023-05-20T19:05:11.207Z,59.30
2023-05-20T19:09:16.862Z,59.70
2023-05-20T19:13:22.383Z,60.10
2023-05-20T19:17:28.031Z,60.50
2023-05-20T19:21:33.808Z,60.90
2023-05-20T19:25:39.539Z,61.20
2023-05-20T19:29:45.061Z,61.90
2023-05-20T19:33:51.574Z,62.00
2023-05-20T19:37:57.368Z,62.30
2023-05-20T19:42:02.979Z,62.50
2023-05-20T19:46:08.802Z,62.50
2023-05-20T19:50:14.638Z,62.60
2023-05-20T19:54:20.277Z,62.90
2023-05-20T19:58:25.784Z,63.20
2023-05-20T20:02:31.793Z,63.60
2023-05-20T20:06:37.330Z,64.10
2023-05-20T20:10:42.879Z,64.20
2023-05-20T20:14:48.397Z,64.60
2023-05-20T20:18:54.666Z,64.80
2023-05-20T20:23:00.214Z,65.20
2023-05-20T20:27:06.141Z,65.30
2023-05-20T20:31:11.729Z,65.60
2023-05-20T20:35:17.268Z,65.90
2023-05-20T20:39:25.086Z,66.20
2023-05-20T20:43:30.848Z,66.30
2023-05-20T20:47:38.635Z,66.30
2023-05-20T20:51:45.159Z,66.40
2023-05-20T20:55:51.642Z,66.40
2023-05-20T20:59:58.452Z,66.50
2023-05-20T21:04:05.315Z,66.40
2023-05-20T21:08:13.100Z,66.70
2023-05-20T21:12:18.795Z,67.40
2023-05-20T21:16:24.298Z,67.30
2023-05-20T21:20:29.897Z,67.30
2023-05-20T21:24:35.458Z,67.50
2023-05-20T21:28:40.956Z,67.50
2023-05-20T21:32:46.466Z,67.60
2023-05-20T21:36:51.978Z,67.60
2023-05-20T21:40:58.610Z,67.60
2023-05-20T21:45:04.977Z,67.70
2023-05-20T21:49:10.488Z,67.80
2023-05-20T21:53:16.028Z,68.20
2023-05-20T21:57:21.693Z,68.00
2023-05-20T22:01:27.235Z,68.20
2023-05-20T22:05:34.392Z,68.30
2023-05-20T22:09:40.221Z,68.60
2023-05-20T22:13:45.713Z,68.60
2023-05-20T22:17:51.261Z,68.60
2023-05-20T22:21:57.146Z,68.80
2023-05-20T22:26:02.655Z,68.90
2023-05-20T22:30:12.587Z,68.90
2023-05-20T22:34:18.042Z,68.80
2023-05-20T22:38:23.858Z,68.80
2023-05-20T22:42:29.355Z,69.00
2023-05-20T22:46:34.879Z,68.90
2023-05-20T22:50:41.409Z,68.80
2023-05-20T22:54:46.991Z,68.90
2023-05-20T22:58:52.518Z,69.60
2023-05-20T23:02:58.643Z,69.40
2023-05-20T23:07:05.547Z,69.50
2023-05-20T23:11:11.308Z,69.50
2023-05-20T23:15:17.033Z,69.80
2023-05-20T23:19:22.674Z,70.10
2023-05-20T23:23:31.811Z,70.40
2023-05-20T23:27:38.147Z,70.50
2023-05-20T23:31:43.635Z,70.50
2023-05-20T23:35:49.076Z,70.70
2023-05-20T23:39:54.561Z,70.90
2023-05-20T23:44:00.111Z,71.00
2023-05-20T23:48:07.058Z,71.10
2023-05-20T23:52:12.509Z,72.10
2023-05-20T23:56:18.024Z,71.70
